createdAt,value
2023-03-15T00:01:55.885Z,12.06
2023-03-15T00:04:24.975Z,12.49
2023-03-15T00:06:52.368Z,12.43
2023-03-15T00:09:19.883Z,12.05
2023-03-15T00:11:47.751Z,12.31
2023-03-15T00:14:15.763Z,12.20
2023-03-15T00:16:43.320Z,11.86
2023-03-15T00:19:11.531Z,12.20
2023-03-15T00:21:40.496Z,11.77
2023-03-15T00:24:08.202Z,11.47
2023-03-15T00:26:35.834Z,11.60
2023-03-15T00:29:03.453Z,11.44
2023-03-15T00:31:30.928Z,11.89
2023-03-15T00:33:58.607Z,11.79
2023-03-15T00:36:26.155Z,11.54
2023-03-15T00:38:56.011Z,11.47
2023-03-15T00:41:24.159Z,11.87
2023-03-15T00:43:51.835Z,11.98
2023-03-15T00:46:19.966Z,11.39
2023-03-15T00:48:49.333Z,11.46
2023-03-15T00:51:19.734Z,11.32
2023-03-15T00:53:48.344Z,10.95
2023-03-15T00:56:21.485Z,11.36
2023-03-15T00:58:49.284Z,11.83
2023-03-15T01:01:21.570Z,11.66
2023-03-15T01:03:49.093Z,11.55
2023-03-15T01:06:22.880Z,11.53
2023-03-15T01:08:51.563Z,11.54
2023-03-15T01:11:22.357Z,10.93
2023-03-15T01:13:51.520Z,11.22
2023-03-15T01:16:19.894Z,10.90
2023-03-15T01:18:47.341Z,11.05
2023-03-15T01:21:15.985Z,11.18
2023-03-15T01:23:46.926Z,10.68
2023-03-15T01:26:15.746Z,10.88
2023-03-15T01:28:44.445Z,11.02
2023-03-15T01:31:23.720Z,11.09
2023-03-15T01:33:51.389Z,10.70
2023-03-15T01:36:19.197Z,11.02
2023-03-15T01:38:47.001Z,10.84
2023-03-15T01:41:15.886Z,11.06
2023-03-15T01:43:47.318Z,11.19
2023-03-15T01:46:24.820Z,11.12
2023-03-15T01:48:58.592Z,11.70
2023-03-15T01:51:53.740Z,11.48
2023-03-15T01:54:27.633Z,11.30
2023-03-15T01:57:02.491Z,11.22
2023-03-15T01:59:36.864Z,11.77
2023-03-15T02:02:05.314Z,11.68
2023-03-15T02:04:46.565Z,12.08
2023-03-15T02:07:17.221Z,12.25
2023-03-15T02:09:51.548Z,11.24
2023-03-15T02:12:19.297Z,11.14
2023-03-15T02:14:49.747Z,11.61
2023-03-15T02:17:19.067Z,10.92
2023-03-15T02:19:58.193Z,11.31
2023-03-15T02:22:32.163Z,11.32
2023-03-15T02:25:07.518Z,10.93
2023-03-15T02:27:35.883Z,10.85
2023-03-15T02:30:04.400Z,10.54
2023-03-15T02:32:32.114Z,10.96
2023-03-15T02:34:59.884Z,10.66
2023-03-15T02:37:27.347Z,10.35
2023-03-15T02:39:54.791Z,10.20
2023-03-15T02:42:24.120Z,10.09
2023-03-15T02:44:52.040Z,10.31
2023-03-15T02:47:25.492Z,10.56
2023-03-15T02:49:53.900Z,10.45
2023-03-15T02:52:22.269Z,10.49
2023-03-15T02:54:50.160Z,10.37
2023-03-15T02:57:19.477Z,10.75
2023-03-15T02:59:48.616Z,10.51
2023-03-15T03:02:15.993Z,10.11
2023-03-15T03:04:43.741Z,10.18
2023-03-15T03:07:11.185Z,9.92
2023-03-15T03:09:38.921Z,10.20
2023-03-15T03:12:07.466Z,10.59
2023-03-15T03:14:35.000Z,10.53
2023-03-15T03:17:03.148Z,10.33
2023-03-15T03:19:30.906Z,10.13
2023-03-15T03:21:58.759Z,10.37
2023-03-15T03:24:26.270Z,9.98
2023-03-15T03:26:57.912Z,9.86
2023-03-15T03:29:26.633Z,10.33
2023-03-15T03:31:54.895Z,10.59
2023-03-15T03:34:22.569Z,10.77
2023-03-15T03:36:51.059Z,10.23
2023-03-15T03:39:19.379Z,10.00
2023-03-15T03:41:47.215Z,10.35
2023-03-15T03:44:14.675Z,10.22
2023-03-15T03:46:42.714Z,9.98
2023-03-15T03:49:10.149Z,10.03
2023-03-15T03:51:37.831Z,10.01
2023-03-15T03:54:05.477Z,10.16
2023-03-15T03:56:32.870Z,10.41
2023-03-15T03:59:00.275Z,9.87
2023-03-15T04:01:28.516Z,10.52
2023-03-15T04:03:56.244Z,11.07
2023-03-15T04:06:23.746Z,11.20
2023-03-15T04:08:51.452Z,10.37
2023-03-15T04:11:19.887Z,10.24
2023-03-15T04:13:49.386Z,10.33
2023-03-15T04:16:17.172Z,10.38
2023-03-15T04:18:46.310Z,10.26
2023-03-15T04:21:14.012Z,10.39
2023-03-15T04:23:42.314Z,10.44
2023-03-15T04:26:10.662Z,9.79
2023-03-15T04:28:38.504Z,10.32
2023-03-15T04:31:10.573Z,10.17
2023-03-15T04:33:38.930Z,9.72
2023-03-15T04:36:07.792Z,10.07
2023-03-15T04:38:35.809Z,10.25
2023-03-15T04:41:10.901Z,9.55
2023-03-15T04:43:38.792Z,9.99
2023-03-15T04:46:07.032Z,9.96
2023-03-15T04:48:36.333Z,10.23
2023-03-15T04:51:05.484Z,9.82
2023-03-15T04:53:33.496Z,10.44
2023-03-15T04:56:04.239Z,9.97
2023-03-15T04:58:33.324Z,10.41
2023-03-15T05:01:01.539Z,10.49
2023-03-15T05:03:29.315Z,10.06
2023-03-15T05:05:57.195Z,10.41
2023-03-15T05:08:25.402Z,9.90
2023-03-15T05:10:53.156Z,9.02
2023-03-15T05:13:22.853Z,9.53
2023-03-15T05:15:50.584Z,8.96
2023-03-15T05:18:18.750Z,9.40
2023-03-15T05:20:47.622Z,9.01
2023-03-15T05:23:16.240Z,8.90
2023-03-15T05:25:43.731Z,9.44
2023-03-15T05:28:11.609Z,8.79
2023-03-15T05:30:40.035Z,8.95
2023-03-15T05:33:07.477Z,8.72
2023-03-15T05:35:35.524Z,9.31
2023-03-15T05:38:03.732Z,9.10
2023-03-15T05:40:32.259Z,9.17
2023-03-15T05:43:00.630Z,8.99
2023-03-15T05:45:28.675Z,8.55
2023-03-15T05:47:56.477Z,9.36
2023-03-15T05:50:24.403Z,9.26
2023-03-15T05:52:53.056Z,9.22
2023-03-15T05:55:20.691Z,9.04
2023-03-15T05:57:50.223Z,9.20
2023-03-15T06:00:18.524Z,8.60
2023-03-15T06:02:48.277Z,8.06
2023-03-15T06:05:16.827Z,8.16
2023-03-15T06:07:46.351Z,8.27
2023-03-15T06:10:15.021Z,8.07
2023-03-15T06:12:42.606Z,8.27
2023-03-15T06:15:10.865Z,8.39
2023-03-15T06:17:39.422Z,8.47
2023-03-15T06:20:07.123Z,8.50
2023-03-15T06:22:34.947Z,8.39
2023-03-15T06:25:03.612Z,8.19
2023-03-15T06:27:31.005Z,8.34
2023-03-15T06:29:59.523Z,8.00
2023-03-15T06:32:27.533Z,8.35
2023-03-15T06:34:55.372Z,9.04
2023-03-15T06:37:34.762Z,8.46
2023-03-15T06:40:08.922Z,8.15
2023-03-15T06:42:36.888Z,8.72
2023-03-15T06:45:06.402Z,8.62
2023-03-15T06:47:33.873Z,7.88
2023-03-15T06:50:01.205Z,8.04
2023-03-15T06:52:28.852Z,7.72
2023-03-15T06:54:56.366Z,8.21
2023-03-15T06:57:23.994Z,8.36
2023-03-15T06:59:54.041Z,7.69
2023-03-15T07:02:22.237Z,8.02
2023-03-15T07:04:49.627Z,8.05
2023-03-15T07:07:17.276Z,8.00
2023-03-15T07:09:44.651Z,8.03
2023-03-15T07:12:12.197Z,8.05
2023-03-15T07:14:39.863Z,7.87
2023-03-15T07:17:07.275Z,7.96
2023-03-15T07:19:37.216Z,8.00
2023-03-15T07:22:07.284Z,7.89
2023-03-15T07:24:34.683Z,7.76
2023-03-15T07:27:02.309Z,8.02
2023-03-15T07:29:30.022Z,8.13
2023-03-15T07:31:57.784Z,8.36
2023-03-15T07:34:25.224Z,8.26
2023-03-15T07:36:53.891Z,8.19
2023-03-15T07:39:21.588Z,7.76
2023-03-15T07:41:49.487Z,7.68
2023-03-15T07:44:20.616Z,7.50
2023-03-15T07:46:48.513Z,8.53
2023-03-15T07:49:15.891Z,8.19
2023-03-15T07:51:43.621Z,8.75
2023-03-15T07:54:11.048Z,8.86
2023-03-15T07:56:38.451Z,8.75
2023-03-15T07:59:06.219Z,8.23
2023-03-15T08:01:33.613Z,8.41
2023-03-15T08:04:01.470Z,8.24
2023-03-15T08:06:28.905Z,8.39
2023-03-15T08:08:56.298Z,8.81
2023-03-15T08:11:23.982Z,9.14
2023-03-15T08:13:51.354Z,9.35
2023-03-15T08:16:18.785Z,9.35
2023-03-15T08:18:46.744Z,9.35
2023-03-15T08:21:14.164Z,9.17
2023-03-15T08:23:41.573Z,9.57
2023-03-15T08:26:09.185Z,8.85
2023-03-15T08:28:36.703Z,9.07
2023-03-15T08:31:08.986Z,9.17
2023-03-15T08:33:36.929Z,8.92
2023-03-15T08:36:04.520Z,9.23
2023-03-15T08:38:31.918Z,9.09
2023-03-15T08:41:00.036Z,8.76
2023-03-15T08:43:27.592Z,8.48
2023-03-15T08:46:01.182Z,8.70
2023-03-15T08:48:30.231Z,8.86
2023-03-15T08:51:03.199Z,8.53
2023-03-15T08:53:31.341Z,8.22
2023-03-15T08:55:58.752Z,8.24
2023-03-15T08:58:26.187Z,8.32
2023-03-15T09:00:54.061Z,8.20
2023-03-15T09:03:22.635Z,8.46
2023-03-15T09:05:50.051Z,8.04
2023-03-15T09:08:21.178Z,7.97
2023-03-15T09:10:48.762Z,8.08
2023-03-15T09:13:16.242Z,7.77
2023-03-15T09:15:43.928Z,8.45
2023-03-15T09:18:11.631Z,8.35
2023-03-15T09:20:39.845Z,8.38
2023-03-15T09:23:07.852Z,8.84
2023-03-15T09:25:37.086Z,8.27
2023-03-15T09:28:06.459Z,8.75
2023-03-15T09:30:35.718Z,8.50
2023-03-15T09:33:03.400Z,8.58
2023-03-15T09:35:31.141Z,8.48
2023-03-15T09:37:58.815Z,8.79
2023-03-15T09:40:32.028Z,8.56
2023-03-15T09:43:14.001Z,8.12
2023-03-15T09:45:56.648Z,8.69
2023-03-15T09:48:28.977Z,8.10
2023-03-15T09:51:16.311Z,8.15
2023-03-15T09:53:52.688Z,8.16
2023-03-15T09:56:27.349Z,8.51
2023-03-15T09:58:58.520Z,8.74
2023-03-15T10:01:31.382Z,8.62
2023-03-15T10:04:05.575Z,8.86
2023-03-15T10:06:36.582Z,8.30
2023-03-15T10:09:13.895Z,8.86
2023-03-15T10:11:47.384Z,8.49
2023-03-15T10:14:51.923Z,9.15
2023-03-15T10:17:27.583Z,8.79
2023-03-15T10:20:01.324Z,9.05
2023-03-15T10:22:41.301Z,9.54
2023-03-15T10:25:29.276Z,9.45
2023-03-15T10:28:04.664Z,9.37
2023-03-15T10:30:34.229Z,9.28
2023-03-15T10:33:06.008Z,9.63
2023-03-15T10:35:33.862Z,9.17
2023-03-15T10:38:02.722Z,8.83
2023-03-15T10:40:42.171Z,9.22
2023-03-15T10:43:36.963Z,9.44
2023-03-15T10:46:10.621Z,9.71
2023-03-15T10:49:02.402Z,9.16
2023-03-15T10:51:32.559Z,9.55
2023-03-15T10:54:21.119Z,9.28
2023-03-15T10:57:19.255Z,8.89
2023-03-15T10:59:59.843Z,9.54
2023-03-15T11:02:27.255Z,9.20
2023-03-15T11:05:09.286Z,8.81
2023-03-15T11:07:37.981Z,9.30
2023-03-15T11:10:07.110Z,9.39
2023-03-15T11:12:35.050Z,8.87
2023-03-15T11:15:19.692Z,8.92
2023-03-15T11:17:50.298Z,8.88
2023-03-15T11:20:30.824Z,9.50
2023-03-15T11:23:00.180Z,9.74
2023-03-15T11:25:33.610Z,9.61
2023-03-15T11:28:01.499Z,9.15
2023-03-15T11:30:31.385Z,9.58
2023-03-15T11:33:03.642Z,8.73
2023-03-15T11:35:35.439Z,9.23
2023-03-15T11:38:15.469Z,9.41
2023-03-15T11:40:47.587Z,9.00
2023-03-15T11:43:21.422Z,9.35
2023-03-15T11:45:52.832Z,9.50
2023-03-15T11:48:31.423Z,9.36
2023-03-15T11:50:59.458Z,9.75
2023-03-15T11:53:33.192Z,9.68
2023-03-15T11:56:23.610Z,9.52
2023-03-15T11:59:40.588Z,9.99
2023-03-15T12:02:11.581Z,9.90
2023-03-15T12:04:42.322Z,9.85
2023-03-15T12:07:18.972Z,10.07
2023-03-15T12:09:56.202Z,10.75
2023-03-15T12:12:26.813Z,10.31
2023-03-15T12:15:16.511Z,10.05
2023-03-15T12:17:57.548Z,9.95
2023-03-15T12:20:41.186Z,9.95
2023-03-15T12:23:17.697Z,9.91
2023-03-15T12:25:55.628Z,9.27
2023-03-15T12:28:38.226Z,9.60
2023-03-15T12:31:13.253Z,9.91
2023-03-15T12:34:01.324Z,9.31
2023-03-15T12:36:38.065Z,9.78
2023-03-15T12:39:17.644Z,10.13
2023-03-15T12:41:51.091Z,9.90
2023-03-15T12:44:46.871Z,10.21
2023-03-15T12:47:14.623Z,10.70
2023-03-15T12:49:44.141Z,10.02
2023-03-15T12:52:11.719Z,9.95
2023-03-15T12:54:50.347Z,10.19
2023-03-15T12:57:48.132Z,9.73
2023-03-15T13:00:18.713Z,9.88
2023-03-15T13:02:47.352Z,10.68
2023-03-15T13:05:17.915Z,10.07
2023-03-15T13:07:51.107Z,10.09
2023-03-15T13:10:47.347Z,9.93
2023-03-15T13:13:46.137Z,9.95
2023-03-15T13:16:35.661Z,9.96
2023-03-15T13:19:25.087Z,10.12
2023-03-15T13:22:02.874Z,10.56
2023-03-15T13:24:58.462Z,10.40
2023-03-15T13:27:47.838Z,10.09
2023-03-15T13:30:42.053Z,9.88
2023-03-15T13:33:22.520Z,10.20
2023-03-15T13:36:02.210Z,10.04
2023-03-15T13:38:35.027Z,9.91
2023-03-15T13:41:05.869Z,9.78
2023-03-15T13:43:36.605Z,9.55
2023-03-15T13:46:05.349Z,9.23
2023-03-15T13:48:37.726Z,9.35
2023-03-15T13:51:11.446Z,9.46
2023-03-15T13:53:49.564Z,9.45
2023-03-15T13:56:20.776Z,9.17
2023-03-15T13:58:49.370Z,9.72
2023-03-15T14:01:17.522Z,9.48
2023-03-15T14:03:49.777Z,9.34
2023-03-15T14:06:22.491Z,9.49
2023-03-15T14:08:54.669Z,9.44
2023-03-15T14:11:24.999Z,9.27
2023-03-15T14:13:58.439Z,9.78
2023-03-15T14:17:02.894Z,10.26
2023-03-15T14:19:35.017Z,10.04
2023-03-15T14:22:15.782Z,9.70
2023-03-15T14:24:44.482Z,9.56
2023-03-15T14:27:20.902Z,9.56
2023-03-15T14:29:54.814Z,9.66
2023-03-15T14:32:33.588Z,9.86
2023-03-15T14:35:08.080Z,8.98
2023-03-15T14:37:38.539Z,9.52
2023-03-15T14:40:35.043Z,9.54
2023-03-15T14:43:03.008Z,9.31
2023-03-15T14:45:32.121Z,8.86
2023-03-15T14:48:06.523Z,9.10
2023-03-15T14:50:40.074Z,9.16
2023-03-15T14:53:09.103Z,9.64
2023-03-15T14:55:37.783Z,8.84
2023-03-15T14:58:12.378Z,9.16
2023-03-15T15:00:41.302Z,9.27
2023-03-15T15:03:22.419Z,9.16
2023-03-15T15:05:50.132Z,9.17
2023-03-15T15:08:19.273Z,9.66
2023-03-15T15:10:47.234Z,9.25
2023-03-15T15:13:20.614Z,9.49
2023-03-15T15:15:55.608Z,9.16
2023-03-15T15:18:26.068Z,9.46
2023-03-15T15:20:55.962Z,9.66
2023-03-15T15:23:28.695Z,9.63
2023-03-15T15:25:59.133Z,9.33
2023-03-15T15:28:35.445Z,9.14
2023-03-15T15:31:07.255Z,9.33
2023-03-15T15:33:35.401Z,9.38
2023-03-15T15:36:03.058Z,9.19
2023-03-15T15:38:34.848Z,8.96
2023-03-15T15:41:02.615Z,9.65
2023-03-15T15:43:33.449Z,9.55
2023-03-15T15:46:01.952Z,9.54
2023-03-15T15:48:29.772Z,9.47
2023-03-15T15:50:57.715Z,9.96
2023-03-15T15:53:25.555Z,9.73
2023-03-15T15:55:53.258Z,9.52
2023-03-15T15:58:22.750Z,10.07
2023-03-15T16:00:50.344Z,9.84
2023-03-15T16:03:18.192Z,9.55
2023-03-15T16:05:46.008Z,10.22
2023-03-15T16:08:24.533Z,10.20
2023-03-15T16:10:52.307Z,9.78
2023-03-15T16:13:19.710Z,9.85
2023-03-15T16:15:48.500Z,9.73
2023-03-15T16:18:16.296Z,10.20
2023-03-15T16:20:44.821Z,10.22
2023-03-15T16:23:21.921Z,9.83
2023-03-15T16:25:55.505Z,9.57
2023-03-15T16:28:23.934Z,9.98
2023-03-15T16:30:51.906Z,9.48
2023-03-15T16:33:21.656Z,9.68
2023-03-15T16:35:53.190Z,9.57
2023-03-15T16:38:24.679Z,9.40
2023-03-15T16:40:54.114Z,9.44
2023-03-15T16:43:22.029Z,9.83
2023-03-15T16:45:49.801Z,9.64
2023-03-15T16:48:17.888Z,10.28
2023-03-15T16:50:45.729Z,9.29
2023-03-15T16:53:13.406Z,9.73
2023-03-15T16:55:41.076Z,10.07
2023-03-15T16:58:16.516Z,9.39
2023-03-15T17:00:46.720Z,9.68
2023-03-15T17:03:15.919Z,9.68
2023-03-15T17:05:48.230Z,9.53
2023-03-15T17:08:20.206Z,9.04
2023-03-15T17:10:47.815Z,9.28
2023-03-15T17:13:17.501Z,8.56
2023-03-15T17:15:46.215Z,8.42
2023-03-15T17:18:18.043Z,8.75
2023-03-15T17:20:47.925Z,9.35
2023-03-15T17:23:16.236Z,9.52
2023-03-15T17:25:44.032Z,9.08
2023-03-15T17:28:12.035Z,9.19
2023-03-15T17:30:39.748Z,8.77
2023-03-15T17:33:08.819Z,8.77
2023-03-15T17:35:51.298Z,8.92
2023-03-15T17:38:24.596Z,9.00
2023-03-15T17:40:56.638Z,9.02
2023-03-15T17:43:25.523Z,8.93
2023-03-15T17:45:54.988Z,8.20
2023-03-15T17:48:24.779Z,8.37
2023-03-15T17:50:55.744Z,8.25
2023-03-15T17:53:25.058Z,8.66
2023-03-15T17:55:53.626Z,9.07
2023-03-15T17:58:23.846Z,8.35
2023-03-15T18:00:53.565Z,8.99
2023-03-15T18:03:22.657Z,8.94
2023-03-15T18:05:51.296Z,9.09
2023-03-15T18:08:21.083Z,8.66
2023-03-15T18:10:50.319Z,8.85
2023-03-15T18:13:19.702Z,9.22
2023-03-15T18:15:49.744Z,9.46
2023-03-15T18:18:19.682Z,9.25
2023-03-15T18:20:49.425Z,8.26
2023-03-15T18:23:17.720Z,8.78
2023-03-15T18:25:47.164Z,9.21
2023-03-15T18:28:14.651Z,8.67
2023-03-15T18:30:43.749Z,8.77
2023-03-15T18:33:12.082Z,8.61
2023-03-15T18:35:40.065Z,8.61
2023-03-15T18:38:07.683Z,9.48
2023-03-15T18:40:35.734Z,9.02
2023-03-15T18:43:05.475Z,8.85
2023-03-15T18:45:34.982Z,7.94
2023-03-15T18:48:03.252Z,8.25
2023-03-15T18:50:32.039Z,8.25
2023-03-15T18:53:00.364Z,8.26
2023-03-15T18:55:28.111Z,8.30
2023-03-15T18:57:55.588Z,8.70
2023-03-15T19:00:29.906Z,9.07
2023-03-15T19:02:59.706Z,9.41
2023-03-15T19:05:29.462Z,10.02
2023-03-15T19:07:57.634Z,9.01
2023-03-15T19:10:25.864Z,8.97
2023-03-15T19:12:54.619Z,9.43
2023-03-15T19:15:23.369Z,10.13
2023-03-15T19:17:54.702Z,9.85
2023-03-15T19:20:22.993Z,10.00
2023-03-15T19:22:52.207Z,10.01
2023-03-15T19:25:20.393Z,10.31
2023-03-15T19:27:48.872Z,10.12
2023-03-15T19:30:21.170Z,10.13
2023-03-15T19:32:50.380Z,10.31
2023-03-15T19:35:19.996Z,10.75
2023-03-15T19:37:48.227Z,10.80
2023-03-15T19:40:16.564Z,10.23
2023-03-15T19:42:44.815Z,9.82
2023-03-15T19:45:14.929Z,10.25
2023-03-15T19:47:42.813Z,9.86
2023-03-15T19:50:12.450Z,10.41
2023-03-15T19:52:45.811Z,11.10
2023-03-15T19:55:19.077Z,11.00
2023-03-15T19:57:47.659Z,11.02
2023-03-15T20:00:18.204Z,10.73
2023-03-15T20:02:46.666Z,11.21
2023-03-15T20:05:16.404Z,11.47
2023-03-15T20:07:44.570Z,10.86
2023-03-15T20:10:13.521Z,11.14
2023-03-15T20:12:45.392Z,10.07
2023-03-15T20:15:16.152Z,11.01
2023-03-15T20:17:43.935Z,10.89
2023-03-15T20:20:13.725Z,10.41
2023-03-15T20:22:43.992Z,10.57
2023-03-15T20:25:16.785Z,9.69
2023-03-15T20:27:45.063Z,9.89
2023-03-15T20:30:14.751Z,10.74
2023-03-15T20:32:43.194Z,10.64
2023-03-15T20:35:11.103Z,11.06
2023-03-15T20:37:42.971Z,10.82
2023-03-15T20:40:13.276Z,11.10
2023-03-15T20:42:42.958Z,10.88
2023-03-15T20:45:12.453Z,10.57
2023-03-15T20:47:41.165Z,10.74
2023-03-15T20:50:12.020Z,9.69
2023-03-15T20:52:42.405Z,10.33
2023-03-15T20:55:11.219Z,10.38
2023-03-15T20:57:41.312Z,10.28
2023-03-15T21:00:18.937Z,10.45
2023-03-15T21:02:47.846Z,10.64
2023-03-15T21:05:16.345Z,9.90
2023-03-15T21:07:44.462Z,10.77
2023-03-15T21:10:16.016Z,9.84
2023-03-15T21:12:46.773Z,10.11
2023-03-15T21:15:18.876Z,9.95
2023-03-15T21:17:50.376Z,9.89
2023-03-15T21:20:18.217Z,9.83
2023-03-15T21:22:45.835Z,9.37
2023-03-15T21:25:13.654Z,9.47
2023-03-15T21:27:41.270Z,10.47
2023-03-15T21:30:09.478Z,10.12
2023-03-15T21:32:38.344Z,10.95
2023-03-15T21:35:06.664Z,11.29
2023-03-15T21:37:34.130Z,11.49
2023-03-15T21:40:02.377Z,11.10
2023-03-15T21:42:29.918Z,11.42
2023-03-15T21:44:57.323Z,11.56
2023-03-15T21:47:25.027Z,11.26
2023-03-15T21:49:54.058Z,11.72
2023-03-15T21:52:21.789Z,11.53
2023-03-15T21:54:49.659Z,11.94
2023-03-15T21:57:17.033Z,11.45
2023-03-15T21:59:44.715Z,11.06
2023-03-15T22:02:14.273Z,11.83
2023-03-15T22:04:42.856Z,12.20
2023-03-15T22:07:11.380Z,12.30
2023-03-15T22:09:39.084Z,11.34
2023-03-15T22:12:07.836Z,11.51
2023-03-15T22:14:35.302Z,11.09
2023-03-15T22:17:05.048Z,11.32
2023-03-15T22:19:32.882Z,11.83
2023-03-15T22:22:00.993Z,11.19
2023-03-15T22:24:28.410Z,10.79
2023-03-15T22:26:56.652Z,11.45
2023-03-15T22:29:24.022Z,11.10
2023-03-15T22:31:51.759Z,11.27
2023-03-15T22:34:19.834Z,11.16
2023-03-15T22:36:47.234Z,11.35
2023-03-15T22:39:14.694Z,11.15
2023-03-15T22:41:42.453Z,10.61
2023-03-15T22:44:09.915Z,10.37
2023-03-15T22:46:37.420Z,10.80
2023-03-15T22:49:05.156Z,10.46
2023-03-15T22:51:32.562Z,11.12
2023-03-15T22:54:00.048Z,10.35
2023-03-15T22:56:28.756Z,10.36
2023-03-15T22:58:56.192Z,10.47
2023-03-15T23:01:23.899Z,10.12
2023-03-15T23:03:51.594Z,10.56
2023-03-15T23:06:19.786Z,10.65
2023-03-15T23:08:47.221Z,10.56
2023-03-15T23:11:14.864Z,10.40
2023-03-15T23:13:42.393Z,9.99
2023-03-15T23:16:09.966Z,9.92
2023-03-15T23:18:37.668Z,9.71
2023-03-15T23:21:12.924Z,9.49
2023-03-15T23:23:42.730Z,9.21
2023-03-15T23:26:12.873Z,9.50
2023-03-15T23:28:40.767Z,8.90
2023-03-15T23:31:08.728Z,9.07
2023-03-15T23:33:36.288Z,7.97
2023-03-15T23:36:05.864Z,8.48
2023-03-15T23:38:34.784Z,8.80
2023-03-15T23:41:02.378Z,8.20
2023-03-15T23:43:30.039Z,8.68
2023-03-15T23:46:03.517Z,9.73
2023-03-15T23:48:35.204Z,9.35
2023-03-15T23:51:03.116Z,8.83
2023-03-15T23:53:31.400Z,9.13
2023-03-15T23:55:58.857Z,9.13
2023-03-15T23:58:26.274Z,9.06
